createdAt,value
2016-04-24T00:00:40.970Z,5.89
2016-04-24T00:01:40.833Z,5.91
2016-04-24T00:02:40.898Z,5.89
2016-04-24T00:03:40.900Z,5.87
2016-04-24T00:04:40.903Z,5.84
2016-04-24T00:05:40.906Z,5.79
2016-04-24T00:06:40.830Z,5.87
2016-04-24T00:07:40.522Z,5.73
2016-04-24T00:08:40.883Z,5.73
2016-04-24T00:09:40.838Z,5.76
2016-04-24T00:10:40.826Z,5.71
2016-04-24T00:11:40.875Z,5.65
2016-04-24T00:12:40.830Z,5.66
2016-04-24T00:13:40.850Z,5.66
2016-04-24T00:14:40.071Z,5.59
2016-04-24T00:15:40.839Z,5.61
2016-04-24T00:16:40.873Z,5.64
2016-04-24T00:17:40.798Z,5.64
2016-04-24T00:18:40.816Z,5.65
2016-04-24T00:19:40.740Z,5.57
2016-04-24T00:20:40.868Z,5.64
2016-04-24T00:21:40.793Z,5.59
2016-04-24T00:22:44.748Z,5.57
2016-04-24T00:23:40.799Z,5.62
2016-04-24T00:24:40.879Z,5.57
2016-04-24T00:25:40.850Z,5.53
2016-04-24T00:26:40.776Z,5.54
2016-04-24T00:27:40.856Z,5.56
2016-04-24T00:28:40.842Z,5.64
2016-04-24T00:29:40.799Z,5.64
2016-04-24T00:30:40.770Z,5.53
2016-04-24T00:31:40.757Z,5.57
2016-04-24T00:32:40.759Z,5.61
2016-04-24T00:33:40.856Z,5.48
2016-04-24T00:34:40.812Z,5.46
2016-04-24T00:35:40.752Z,5.51
2016-04-24T00:36:40.770Z,5.46
2016-04-24T00:37:40.773Z,5.48
2016-04-24T00:38:40.822Z,5.54
2016-04-24T00:39:40.779Z,5.56
2016-04-24T00:40:40.672Z,5.51
2016-04-24T00:41:40.690Z,5.47
2016-04-24T00:42:40.772Z,5.48
2016-04-24T00:43:40.727Z,5.44
2016-04-24T00:44:40.651Z,5.47
2016-04-24T00:45:40.795Z,5.47
2016-04-24T00:46:40.641Z,5.48
2016-04-24T00:47:40.722Z,5.43
2016-04-24T00:48:40.740Z,5.38
2016-04-24T00:49:40.696Z,5.35
2016-04-24T00:50:40.699Z,5.38
2016-04-24T00:51:40.732Z,5.32
2016-04-24T00:52:40.657Z,5.44
2016-04-24T00:53:40.691Z,5.39
2016-04-24T00:54:40.662Z,5.28
2016-04-24T00:55:40.682Z,5.35
2016-04-24T00:56:40.637Z,5.46
2016-04-24T00:57:40.717Z,5.39
2016-04-24T00:58:40.752Z,5.43
2016-04-24T00:59:40.707Z,5.38
2016-04-24T01:00:40.678Z,5.36
2016-04-24T01:01:40.635Z,5.32
2016-04-24T01:02:40.684Z,5.43
2016-04-24T01:03:40.687Z,5.33
2016-04-24T01:04:40.643Z,5.36
2016-04-24T01:05:40.661Z,5.35
2016-04-24T01:06:40.633Z,5.36
2016-04-24T01:07:40.791Z,5.44
2016-04-24T01:08:40.575Z,5.36
2016-04-24T01:09:40.531Z,5.38
2016-04-24T01:10:40.580Z,5.46
2016-04-24T01:11:40.647Z,5.33
2016-04-24T01:12:40.539Z,5.47
2016-04-24T01:13:40.557Z,5.47
2016-04-24T01:14:40.577Z,5.46
2016-04-24T01:15:40.579Z,5.41
2016-04-24T01:16:40.581Z,5.43
2016-04-24T01:17:40.616Z,5.38
2016-04-24T01:18:40.618Z,5.51
2016-04-24T01:19:40.558Z,5.48
2016-04-24T01:20:40.577Z,5.36
2016-04-24T01:21:40.532Z,5.44
2016-04-24T01:22:41.098Z,5.46
2016-04-24T01:23:40.570Z,5.57
2016-04-24T01:24:40.605Z,5.5
2016-04-24T01:25:40.576Z,5.53
2016-04-24T01:26:40.453Z,5.57
2016-04-24T01:27:40.520Z,5.54
2016-04-24T01:28:40.553Z,5.56
2016-04-24T01:29:40.509Z,5.53
2016-04-24T01:30:40.543Z,5.62
2016-04-24T01:31:40.561Z,5.61
2016-04-24T01:32:40.470Z,5.47
2016-04-24T01:33:40.504Z,5.54
2016-04-24T01:34:40.538Z,5.47
2016-04-24T01:35:40.494Z,5.41
2016-04-24T01:36:40.278Z,5.41
2016-04-24T01:37:40.890Z,5.44
2016-04-24T01:38:40.424Z,5.32
2016-04-24T01:39:40.488Z,5.36
2016-04-24T01:40:40.507Z,5.41
2016-04-24T01:41:40.432Z,5.44
2016-04-24T01:42:40.465Z,5.44
2016-04-24T01:43:40.500Z,5.39
2016-04-24T01:44:40.424Z,5.35
2016-04-24T01:45:40.474Z,5.43
2016-04-24T01:46:40.446Z,5.38
2016-04-24T01:47:40.417Z,5.39
2016-04-24T01:48:40.388Z,5.33
2016-04-24T01:49:40.390Z,5.41
2016-04-24T01:50:40.425Z,5.46
2016-04-24T01:51:40.396Z,5.44
2016-04-24T01:52:40.884Z,5.35
2016-04-24T01:53:40.467Z,5.46
2016-04-24T01:54:40.478Z,5.36
2016-04-24T01:55:40.537Z,5.46
2016-04-24T01:56:40.533Z,5.39
2016-04-24T01:57:40.546Z,5.36
2016-04-24T01:58:40.535Z,5.38
2016-04-24T01:59:40.568Z,5.41
2016-04-24T02:00:40.663Z,5.41
2016-04-24T02:01:40.556Z,5.47
2016-04-24T02:02:40.620Z,5.44
2016-04-24T02:03:40.598Z,5.39
2016-04-24T02:04:40.654Z,5.33
2016-04-24T02:05:40.614Z,5.38
2016-04-24T02:06:40.575Z,5.38
2016-04-24T02:07:40.630Z,5.28
2016-04-24T02:08:40.588Z,5.39
2016-04-24T02:09:40.609Z,5.41
2016-04-24T02:10:40.645Z,5.35
2016-04-24T02:11:40.602Z,5.44
2016-04-24T02:12:40.732Z,5.36
2016-04-24T02:13:40.611Z,5.32
2016-04-24T02:14:40.598Z,5.32
2016-04-24T02:15:40.586Z,5.36
2016-04-24T02:16:40.698Z,5.36
2016-04-24T02:17:40.607Z,5.38
2016-04-24T02:18:40.578Z,5.36
2016-04-24T02:19:40.629Z,5.36
2016-04-24T02:20:40.601Z,5.3
2016-04-24T02:21:40.541Z,5.28
2016-04-24T02:22:40.451Z,5.28
2016-04-24T02:23:40.594Z,5.26
2016-04-24T02:24:40.628Z,5.32
2016-04-24T02:25:40.630Z,5.3
2016-04-24T02:26:40.602Z,5.29
2016-04-24T02:27:40.496Z,5.28
2016-04-24T02:28:40.592Z,5.3
2016-04-24T02:29:40.563Z,5.3
2016-04-24T02:30:40.582Z,5.32
2016-04-24T02:31:40.521Z,5.3
2016-04-24T02:32:40.540Z,5.41
2016-04-24T02:33:40.512Z,5.3
2016-04-24T02:34:39.733Z,5.28
2016-04-24T02:35:40.642Z,5.3
2016-04-24T02:36:40.504Z,5.32
2016-04-24T02:37:40.350Z,5.28
2016-04-24T02:38:40.541Z,5.3
2016-04-24T02:39:40.528Z,5.38
2016-04-24T02:40:40.562Z,5.36
2016-04-24T02:41:40.502Z,5.3
2016-04-24T02:42:40.489Z,5.23
2016-04-24T02:43:40.507Z,5.23
2016-04-24T02:44:40.494Z,5.29
2016-04-24T02:45:40.466Z,5.25
2016-04-24T02:46:40.484Z,5.3
2016-04-24T02:47:40.519Z,5.29
2016-04-24T02:48:40.489Z,5.32
2016-04-24T02:49:40.399Z,5.25
2016-04-24T02:50:40.463Z,5.2
2016-04-24T02:51:40.482Z,5.1
2016-04-24T02:52:40.344Z,5.25
2016-04-24T02:53:40.487Z,5.26
2016-04-24T02:54:40.428Z,5.29
2016-04-24T02:55:40.368Z,5.18
2016-04-24T02:56:40.510Z,5.21
2016-04-24T02:57:40.404Z,5.21
2016-04-24T02:58:40.423Z,5.15
2016-04-24T02:59:40.410Z,5.17
2016-04-24T03:00:40.381Z,5.21
2016-04-24T03:01:40.431Z,5.17
2016-04-24T03:02:40.448Z,5.12
2016-04-24T03:03:40.436Z,5.11
2016-04-24T03:04:40.392Z,5.17
2016-04-24T03:05:40.409Z,5.15
2016-04-24T03:06:40.398Z,5.15
2016-04-24T03:07:41.056Z,5.12
2016-04-24T03:08:40.403Z,5.11
2016-04-24T03:09:40.421Z,5.14
2016-04-24T03:10:40.423Z,5.12
2016-04-24T03:11:40.317Z,5.15
2016-04-24T03:12:40.429Z,5.18
2016-04-24T03:13:40.400Z,5.2
2016-04-24T03:14:40.450Z,5.15
2016-04-24T03:15:40.453Z,5.26
2016-04-24T03:16:40.347Z,5.26
2016-04-24T03:17:40.270Z,5.25
2016-04-24T03:18:40.336Z,5.28
2016-04-24T03:19:40.323Z,5.26
2016-04-24T03:20:40.122Z,5.26
2016-04-24T03:21:40.297Z,5.2
2016-04-24T03:22:42.112Z,5.29
2016-04-24T03:23:40.271Z,5.29
2016-04-24T03:24:40.368Z,5.2
2016-04-24T03:25:40.402Z,5.12
2016-04-24T03:26:40.232Z,5.12
2016-04-24T03:27:40.266Z,5.15
2016-04-24T03:28:40.221Z,5.11
2016-04-24T03:29:40.302Z,5.12
2016-04-24T03:30:40.259Z,5.11
2016-04-24T03:31:40.199Z,5.08
2016-04-24T03:32:40.248Z,5.1
2016-04-24T03:33:40.251Z,5.14
2016-04-24T03:34:40.285Z,5.07
2016-04-24T03:35:40.256Z,5.11
2016-04-24T03:36:40.212Z,5.08
2016-04-24T03:37:40.137Z,5.04
2016-04-24T03:38:40.201Z,5.11
2016-04-24T03:39:40.267Z,5.07
2016-04-24T03:40:40.239Z,5
2016-04-24T03:41:40.178Z,4.99
2016-04-24T03:42:40.197Z,4.99
2016-04-24T03:43:40.153Z,5
2016-04-24T03:44:40.172Z,4.97
2016-04-24T03:45:40.237Z,5.02
2016-04-24T03:46:40.223Z,4.96
2016-04-24T03:47:40.116Z,5
2016-04-24T03:48:40.151Z,5.02
2016-04-24T03:49:40.138Z,4.97
2016-04-24T03:50:40.203Z,4.94
2016-04-24T03:51:40.127Z,4.92
2016-04-24T03:52:40.943Z,4.89
2016-04-24T03:53:40.898Z,4.78
2016-04-24T03:54:40.183Z,4.93
2016-04-24T03:55:40.170Z,4.86
2016-04-24T03:56:40.110Z,4.9
2016-04-24T03:57:40.221Z,4.9
2016-04-24T03:58:40.100Z,4.97
2016-04-24T03:59:40.101Z,4.9
2016-04-24T04:00:40.090Z,4.92
2016-04-24T04:01:40.107Z,4.93
2016-04-24T04:02:40.048Z,4.93
2016-04-24T04:03:40.143Z,4.92
2016-04-24T04:04:40.069Z,4.92
2016-04-24T04:05:40.181Z,4.9
2016-04-24T04:06:40.121Z,4.96
2016-04-24T04:07:40.092Z,4.93
2016-04-24T04:08:40.048Z,4.93
2016-04-24T04:09:40.051Z,4.92
2016-04-24T04:10:40.163Z,4.9
2016-04-24T04:11:40.025Z,4.86
2016-04-24T04:12:40.059Z,4.86
2016-04-24T04:13:40.077Z,4.92
2016-04-24T04:14:40.003Z,4.8
2016-04-24T04:15:40.145Z,4.86
2016-04-24T04:16:40.101Z,4.8
2016-04-24T04:17:39.994Z,4.93
2016-04-24T04:18:40.059Z,4.97
2016-04-24T04:19:40.047Z,4.87
2016-04-24T04:20:40.065Z,4.87
2016-04-24T04:21:40.021Z,4.87
2016-04-24T04:22:40.008Z,4.87
2016-04-24T04:23:40.916Z,4.9
2016-04-24T04:24:40.091Z,4.87
2016-04-24T04:25:40.032Z,4.97
2016-04-24T04:26:39.956Z,4.89
2016-04-24T04:27:40.005Z,4.84
2016-04-24T04:28:40.008Z,4.92
2016-04-24T04:29:40.011Z,4.84
2016-04-24T04:30:40.013Z,4.84
2016-04-24T04:31:39.907Z,4.82
2016-04-24T04:32:39.988Z,4.78
2016-04-24T04:33:39.912Z,4.89
2016-04-24T04:34:39.946Z,4.8
2016-04-24T04:35:40.090Z,4.86
2016-04-24T04:36:39.951Z,4.78
2016-04-24T04:37:39.954Z,4.77
2016-04-24T04:38:39.942Z,4.87
2016-04-24T04:39:39.898Z,4.77
2016-04-24T04:40:40.072Z,4.77
2016-04-24T04:41:39.903Z,4.77
2016-04-24T04:42:39.936Z,4.71
2016-04-24T04:43:39.939Z,4.8
2016-04-24T04:44:39.879Z,4.86
2016-04-24T04:45:39.929Z,5
2016-04-24T04:46:39.869Z,4.99
2016-04-24T04:47:39.841Z,5.1
2016-04-24T04:48:39.875Z,5.08
2016-04-24T04:49:39.862Z,5.1
2016-04-24T04:50:39.989Z,5.17
2016-04-24T04:51:39.883Z,5.11
2016-04-24T04:52:39.885Z,5.23
2016-04-24T04:53:40.388Z,5.32
2016-04-24T04:54:39.906Z,5.3
2016-04-24T04:55:39.783Z,5.3
2016-04-24T04:56:39.802Z,5.26
2016-04-24T04:57:39.805Z,5.28
2016-04-24T04:58:39.808Z,5.29
2016-04-24T04:59:39.873Z,5.29
2016-04-24T05:00:39.751Z,5.36
2016-04-24T05:01:39.799Z,5.46
2016-04-24T05:02:39.882Z,5.48
2016-04-24T05:03:39.805Z,5.47
2016-04-24T05:04:39.840Z,5.54
2016-04-24T05:05:39.857Z,5.53
2016-04-24T05:06:39.751Z,5.54
2016-04-24T05:07:39.784Z,5.51
2016-04-24T05:08:39.835Z,5.47
2016-04-24T05:09:39.728Z,5.51
2016-04-24T05:10:39.809Z,5.62
2016-04-24T05:11:39.811Z,5.47
2016-04-24T05:12:39.784Z,5.51
2016-04-24T05:13:39.770Z,5.56
2016-04-24T05:14:39.710Z,5.64
2016-04-24T05:15:39.806Z,5.66
2016-04-24T05:16:38.978Z,5.61
2016-04-24T05:17:39.796Z,5.64
2016-04-24T05:18:39.784Z,5.69
2016-04-24T05:19:39.706Z,5.86
2016-04-24T05:20:39.755Z,5.94
2016-04-24T05:21:39.725Z,6.11
2016-04-24T05:22:39.713Z,6.16
2016-04-24T05:23:40.203Z,6.26
2016-04-24T05:24:39.813Z,6.27
2016-04-24T05:25:39.752Z,6.38
2016-04-24T05:26:39.677Z,6.42
2016-04-24T05:27:39.695Z,6.52
2016-04-24T05:28:39.777Z,6.46
2016-04-24T05:29:39.702Z,6.49
2016-04-24T05:30:39.704Z,6.51
2016-04-24T05:31:39.674Z,6.51
2016-04-24T05:32:39.724Z,6.52
2016-04-24T05:33:39.680Z,6.48
2016-04-24T05:34:39.668Z,6.44
2016-04-24T05:35:39.670Z,6.49
2016-04-24T05:36:39.735Z,6.51
2016-04-24T05:37:39.659Z,6.46
2016-04-24T05:38:40.022Z,6.56
2016-04-24T05:39:39.509Z,6.75
2016-04-24T05:40:40.498Z,7.17
2016-04-24T05:41:39.592Z,7.4
2016-04-24T05:42:39.627Z,7.6
2016-04-24T05:43:39.629Z,7.91
2016-04-24T05:44:39.663Z,7.98
2016-04-24T05:45:39.665Z,7.98
2016-04-24T05:46:39.684Z,8
2016-04-24T05:47:39.702Z,7.91
2016-04-24T05:48:39.659Z,7.72
2016-04-24T05:49:39.661Z,7.66
2016-04-24T05:50:39.664Z,7.54
2016-04-24T05:51:39.666Z,7.47
2016-04-24T05:52:39.638Z,7.47
2016-04-24T05:53:39.578Z,7.47
2016-04-24T05:54:39.581Z,7.31
2016-04-24T05:55:39.708Z,7.23
2016-04-24T05:56:39.602Z,7.13
2016-04-24T05:57:39.635Z,7.03
2016-04-24T05:58:39.622Z,7.11
2016-04-24T05:59:39.610Z,7.14
2016-04-24T06:00:39.581Z,7.15
2016-04-24T06:01:39.568Z,7.07
2016-04-24T06:02:39.649Z,7
2016-04-24T06:03:39.543Z,6.87
2016-04-24T06:04:39.623Z,6.72
2016-04-24T06:05:39.641Z,6.67
2016-04-24T06:06:39.613Z,6.59
2016-04-24T06:07:39.584Z,6.57
2016-04-24T06:08:40.149Z,6.56
2016-04-24T06:09:39.605Z,6.49
2016-04-24T06:10:39.748Z,6.42
2016-04-24T06:11:39.579Z,6.48
2016-04-24T06:12:39.676Z,6.49
2016-04-24T06:13:39.585Z,6.54
2016-04-24T06:14:39.650Z,6.59
2016-04-24T06:15:39.590Z,6.57
2016-04-24T06:16:39.592Z,6.64
2016-04-24T06:17:39.548Z,6.56
2016-04-24T06:18:39.629Z,6.51
2016-04-24T06:19:39.742Z,6.48
2016-04-24T06:20:39.619Z,6.42
2016-04-24T06:21:39.559Z,6.56
2016-04-24T06:22:39.567Z,6.54
2016-04-24T06:23:39.789Z,6.45
2016-04-24T06:24:39.620Z,6.49
2016-04-24T06:25:39.514Z,6.66
2016-04-24T06:26:39.547Z,6.69
2016-04-24T06:27:39.550Z,6.69
2016-04-24T06:28:39.490Z,6.63
2016-04-24T06:29:39.572Z,6.52
2016-04-24T06:30:39.574Z,6.59
2016-04-24T06:31:39.577Z,6.7
2016-04-24T06:32:39.486Z,6.77
2016-04-24T06:33:39.567Z,7
2016-04-24T06:34:39.553Z,7.29
2016-04-24T06:35:39.478Z,7.38
2016-04-24T06:36:39.605Z,7.94
2016-04-24T06:37:39.843Z,8.63
2016-04-24T06:38:39.986Z,9.1
2016-04-24T06:39:39.599Z,9.41
2016-04-24T06:40:39.507Z,9.83
2016-04-24T06:41:39.494Z,10.12
2016-04-24T06:42:39.481Z,10.34
2016-04-24T06:43:39.531Z,10.48
2016-04-24T06:44:39.517Z,10.57
2016-04-24T06:45:39.552Z,10.74
2016-04-24T06:46:39.523Z,10.92
2016-04-24T06:47:39.479Z,11.18
2016-04-24T06:48:39.575Z,11.37
2016-04-24T06:49:39.579Z,11.37
2016-04-24T06:50:39.596Z,11.47
2016-04-24T06:51:39.474Z,11.72
2016-04-24T06:52:39.476Z,12.17
2016-04-24T06:53:40.433Z,12.39
2016-04-24T06:54:39.514Z,12.68
2016-04-24T06:55:39.532Z,12.82
2016-04-24T06:56:39.534Z,12.91
2016-04-24T06:57:39.537Z,12.79
2016-04-24T06:58:39.539Z,12.45
2016-04-24T06:59:39.621Z,12.53
2016-04-24T07:00:39.514Z,12.49
2016-04-24T07:01:39.548Z,12.35
2016-04-24T07:02:39.628Z,12.22
2016-04-24T07:03:39.569Z,12.02
2016-04-24T07:04:39.602Z,11.6
2016-04-24T07:05:39.527Z,11.17
2016-04-24T07:06:39.514Z,11.25
2016-04-24T07:07:39.611Z,11.62
2016-04-24T07:08:39.988Z,11.88
2016-04-24T07:09:39.632Z,12.1
2016-04-24T07:10:39.572Z,11.9
2016-04-24T07:11:39.653Z,12.04
2016-04-24T07:12:39.608Z,11.8
2016-04-24T07:13:39.596Z,11.43
2016-04-24T07:14:39.630Z,11.51
2016-04-24T07:15:39.632Z,11.44
2016-04-24T07:16:39.604Z,11.08
2016-04-24T07:17:39.622Z,10.57
2016-04-24T07:18:39.562Z,10.37
2016-04-24T07:19:39.534Z,10.54
2016-04-24T07:20:39.661Z,10.56
2016-04-24T07:21:39.587Z,10.54
2016-04-24T07:22:39.590Z,10.81
2016-04-24T07:23:39.623Z,11.29
2016-04-24T07:24:39.562Z,11.88
2016-04-24T07:25:39.581Z,12.07
2016-04-24T07:26:39.567Z,12.32
2016-04-24T07:27:39.649Z,12.36
2016-04-24T07:28:39.684Z,12.03
2016-04-24T07:29:39.623Z,11.27
2016-04-24T07:30:39.578Z,10.51
2016-04-24T07:31:39.629Z,9.79
2016-04-24T07:32:39.631Z,9.44
2016-04-24T07:33:39.650Z,9.1
2016-04-24T07:34:39.606Z,8.85
2016-04-24T07:35:39.655Z,8.69
2016-04-24T07:36:39.611Z,8.63
2016-04-24T07:37:39.644Z,8.55
2016-04-24T07:38:39.428Z,8.53
2016-04-24T07:39:39.666Z,8.55
2016-04-24T07:40:39.684Z,8.99
2016-04-24T07:41:39.749Z,9.55
2016-04-24T07:42:39.814Z,10.28
2016-04-24T07:43:39.723Z,11.1
2016-04-24T07:44:39.694Z,11.7
2016-04-24T07:45:39.744Z,11.69
2016-04-24T07:46:39.747Z,11.44
2016-04-24T07:47:39.671Z,11.23
2016-04-24T07:48:39.752Z,11.07
2016-04-24T07:49:39.770Z,10.92
2016-04-24T07:50:39.727Z,10.76
2016-04-24T07:51:39.698Z,10.57
2016-04-24T07:52:39.857Z,11.18
2016-04-24T07:53:39.672Z,11.37
2016-04-24T07:54:40.393Z,11.73
2016-04-24T07:55:39.723Z,11.41
2016-04-24T07:56:39.712Z,10.82
2016-04-24T07:57:39.777Z,10.46
2016-04-24T07:58:39.795Z,10.54
2016-04-24T07:59:39.813Z,11.32
2016-04-24T08:00:39.862Z,11.4
2016-04-24T08:01:39.694Z,11.4
2016-04-24T08:02:39.633Z,11.6
2016-04-24T08:03:39.715Z,11.78
2016-04-24T08:04:39.670Z,11.62
2016-04-24T08:05:39.751Z,11.48
2016-04-24T08:06:39.707Z,11.29
2016-04-24T08:07:39.741Z,10.87
2016-04-24T08:08:39.744Z,10.37
2016-04-24T08:09:39.575Z,10.17
2016-04-24T08:10:39.671Z,10.25
2016-04-24T08:11:39.705Z,10.46
2016-04-24T08:12:39.723Z,10.51
2016-04-24T08:13:39.710Z,11.25
2016-04-24T08:14:39.635Z,11.45
2016-04-24T08:15:39.669Z,11.41
2016-04-24T08:16:39.718Z,11.52
2016-04-24T08:17:38.908Z,11.83
2016-04-24T08:18:39.660Z,12.27
2016-04-24T08:19:39.758Z,12.62
2016-04-24T08:20:39.729Z,12.68
2016-04-24T08:21:39.654Z,12.6
2016-04-24T08:22:39.688Z,12.21
2016-04-24T08:23:39.456Z,12.13
2016-04-24T08:24:39.614Z,12.04
2016-04-24T08:25:39.821Z,12.1
2016-04-24T08:26:39.729Z,12.22
2016-04-24T08:27:39.670Z,12.12
2016-04-24T08:28:40.109Z,12.03
2016-04-24T08:29:39.784Z,11.86
2016-04-24T08:30:39.803Z,11.97
2016-04-24T08:31:39.728Z,11.88
2016-04-24T08:32:39.746Z,11.57
2016-04-24T08:33:39.795Z,11.33
2016-04-24T08:34:39.767Z,11.23
2016-04-24T08:35:39.863Z,10.9
2016-04-24T08:36:39.819Z,10.54
2016-04-24T08:37:39.712Z,10.28
2016-04-24T08:38:40.449Z,10.13
2016-04-24T08:39:39.733Z,10.17
2016-04-24T08:40:39.720Z,9.89
2016-04-24T08:41:39.739Z,9.92
2016-04-24T08:42:39.772Z,9.86
2016-04-24T08:43:39.728Z,9.5
2016-04-24T08:44:39.731Z,9.37
2016-04-24T08:45:39.733Z,9.1
2016-04-24T08:46:39.783Z,9.04
2016-04-24T08:47:39.755Z,9.04
2016-04-24T08:48:39.835Z,9.23
2016-04-24T08:49:39.807Z,9.22
2016-04-24T08:50:39.746Z,9.25
2016-04-24T08:51:39.844Z,9.37
2016-04-24T08:52:39.738Z,9.43
2016-04-24T08:53:39.724Z,9.56
2016-04-24T08:54:40.320Z,9.56
2016-04-24T08:55:39.823Z,9.46
2016-04-24T08:56:39.842Z,9.14
2016-04-24T08:57:39.937Z,9.08
2016-04-24T08:58:39.815Z,9.11
2016-04-24T08:59:39.834Z,9.29
2016-04-24T09:00:39.853Z,9.26
2016-04-24T09:01:39.792Z,9.58
2016-04-24T09:02:39.842Z,9.83
2016-04-24T09:03:39.861Z,9.97
2016-04-24T09:04:39.816Z,10.17
2016-04-24T09:05:39.834Z,10.31
2016-04-24T09:06:39.806Z,10.44
2016-04-24T09:07:39.855Z,10.37
2016-04-24T09:08:39.858Z,10.26
2016-04-24T09:09:39.892Z,10.15
2016-04-24T09:10:39.786Z,9.84
2016-04-24T09:11:39.742Z,9.66
2016-04-24T09:12:39.791Z,9.54
2016-04-24T09:13:39.763Z,9.4
2016-04-24T09:14:39.843Z,9.36
2016-04-24T09:15:39.830Z,9.31
2016-04-24T09:16:39.833Z,9.29
2016-04-24T09:17:39.819Z,9.39
2016-04-24T09:18:39.776Z,9.39
2016-04-24T09:19:39.888Z,9.43
2016-04-24T09:20:39.797Z,9.11
2016-04-24T09:21:39.737Z,9.02
2016-04-24T09:22:39.771Z,8.89
2016-04-24T09:23:39.820Z,8.91
2016-04-24T09:24:39.635Z,8.91
2016-04-24T09:25:39.810Z,9.04
2016-04-24T09:26:39.813Z,8.99
2016-04-24T09:27:39.768Z,9.06
2016-04-24T09:28:39.771Z,9.08
2016-04-24T09:29:39.962Z,9.16
2016-04-24T09:30:39.776Z,9.39
2016-04-24T09:31:39.811Z,9.58
2016-04-24T09:32:39.609Z,9.83
2016-04-24T09:33:39.895Z,10.01
2016-04-24T09:34:39.787Z,10.09
2016-04-24T09:35:39.900Z,10.13
2016-04-24T09:36:39.793Z,10.13
2016-04-24T09:37:40.233Z,10.16
2016-04-24T09:38:39.798Z,10.16
2016-04-24T09:39:40.035Z,10.1
2016-04-24T09:40:39.882Z,9.98
2016-04-24T09:41:39.900Z,9.95
2016-04-24T09:42:39.731Z,10.04
2016-04-24T09:43:39.765Z,10.09
2016-04-24T09:44:39.783Z,10.01
2016-04-24T09:45:39.786Z,9.86
2016-04-24T09:46:39.945Z,9.98
2016-04-24T09:47:39.886Z,9.84
2016-04-24T09:48:39.810Z,9.86
2016-04-24T09:49:39.766Z,9.65
2016-04-24T09:50:39.955Z,9.61
2016-04-24T09:51:39.833Z,9.58
2016-04-24T09:52:40.163Z,9.55
2016-04-24T09:53:39.777Z,9.5
2016-04-24T09:54:39.794Z,9.41
2016-04-24T09:55:39.876Z,9.54
2016-04-24T09:56:39.784Z,9.54
2016-04-24T09:57:39.771Z,9.54
2016-04-24T09:58:39.759Z,9.58
2016-04-24T09:59:39.839Z,9.51
2016-04-24T10:00:39.920Z,9.58
2016-04-24T10:01:39.813Z,9.65
2016-04-24T10:02:39.738Z,9.74
2016-04-24T10:03:40.147Z,9.79
2016-04-24T10:04:39.790Z,9.58
2016-04-24T10:05:39.793Z,9.54
2016-04-24T10:06:39.686Z,9.58
2016-04-24T10:07:39.689Z,9.48
2016-04-24T10:08:39.754Z,9.51
2016-04-24T10:09:39.632Z,9.55
2016-04-24T10:10:39.759Z,9.74
2016-04-24T10:11:39.856Z,9.97
2016-04-24T10:12:39.781Z,9.87
2016-04-24T10:13:39.783Z,9.79
2016-04-24T10:14:39.755Z,9.76
2016-04-24T10:15:39.836Z,9.74
2016-04-24T10:16:39.697Z,9.76
2016-04-24T10:17:39.778Z,9.8
2016-04-24T10:18:39.734Z,9.83
2016-04-24T10:19:39.752Z,9.74
2016-04-24T10:20:39.819Z,9.74
2016-04-24T10:21:39.742Z,9.73
2016-04-24T10:22:39.791Z,9.68
2016-04-24T10:23:39.794Z,9.55
2016-04-24T10:24:39.734Z,9.47
2016-04-24T10:25:39.800Z,9.47
2016-04-24T10:26:39.818Z,9.46
2016-04-24T10:27:39.821Z,9.32
2016-04-24T10:28:39.760Z,9.32
2016-04-24T10:29:39.796Z,9.22
2016-04-24T10:30:39.720Z,9.25
2016-04-24T10:31:39.691Z,9.32
2016-04-24T10:32:39.709Z,9.36
2016-04-24T10:33:39.821Z,9.51
2016-04-24T10:34:39.777Z,9.55
2016-04-24T10:35:39.718Z,9.55
2016-04-24T10:36:39.752Z,9.65
2016-04-24T10:37:39.879Z,9.79
2016-04-24T10:38:39.725Z,9.76
2016-04-24T10:39:40.447Z,9.76
2016-04-24T10:40:39.903Z,9.84
2016-04-24T10:41:39.811Z,10.01
2016-04-24T10:42:39.752Z,10.16
2016-04-24T10:43:39.801Z,10.28
2016-04-24T10:44:39.711Z,10.28
2016-04-24T10:45:39.761Z,10.19
2016-04-24T10:46:39.716Z,10.22
2016-04-24T10:47:39.843Z,9.98
2016-04-24T10:48:39.737Z,9.76
2016-04-24T10:49:39.833Z,9.64
2016-04-24T10:50:39.789Z,9.44
2016-04-24T10:51:39.730Z,9.34
2016-04-24T10:52:39.747Z,9.31
2016-04-24T10:53:39.735Z,9.16
2016-04-24T10:54:39.785Z,9.06
2016-04-24T10:55:39.849Z,8.94
2016-04-24T10:56:39.774Z,9.04
2016-04-24T10:57:39.699Z,8.97
2016-04-24T10:58:39.732Z,9.11
2016-04-24T10:59:39.773Z,9.11
2016-04-24T11:00:39.801Z,9.19
2016-04-24T11:01:39.876Z,9.4
2016-04-24T11:02:39.826Z,9.5
2016-04-24T11:03:39.917Z,9.64
2016-04-24T11:04:39.909Z,9.62
2016-04-24T11:05:40.130Z,9.58
2016-04-24T11:06:39.976Z,9.59
2016-04-24T11:07:39.947Z,9.65
2016-04-24T11:08:40.074Z,9.8
2016-04-24T11:09:39.902Z,9.82
2016-04-24T11:10:40.193Z,9.92
2016-04-24T11:11:40.028Z,9.97
2016-04-24T11:12:39.990Z,9.94
2016-04-24T11:13:40.076Z,10.01
2016-04-24T11:14:40.052Z,10.05
2016-04-24T11:15:40.072Z,10.07
2016-04-24T11:16:39.983Z,10.13
2016-04-24T11:17:40.128Z,10.2
2016-04-24T11:18:40.024Z,10.37
2016-04-24T11:19:40.122Z,10.53
2016-04-24T11:20:40.125Z,10.71
2016-04-24T11:21:40.050Z,10.82
2016-04-24T11:22:40.037Z,10.78
2016-04-24T11:23:40.009Z,10.74
2016-04-24T11:24:40.949Z,10.78
2016-04-24T11:25:40.046Z,10.64
2016-04-24T11:26:40.221Z,10.59
2016-04-24T11:27:40.100Z,10.51
2016-04-24T11:28:40.180Z,10.41
2016-04-24T11:29:40.059Z,10.44
2016-04-24T11:30:40.171Z,10.35
2016-04-24T11:31:40.048Z,10.38
2016-04-24T11:32:40.098Z,10.6
2016-04-24T11:33:40.069Z,10.72
2016-04-24T11:34:40.041Z,10.74
2016-04-24T11:35:40.090Z,10.82
2016-04-24T11:36:40.014Z,10.93
2016-04-24T11:37:40.096Z,11.08
2016-04-24T11:38:39.989Z,10.93
2016-04-24T11:39:40.007Z,11.23
2016-04-24T11:40:40.400Z,11.14
2016-04-24T11:41:40.059Z,11.15
2016-04-24T11:42:40.077Z,11.12
2016-04-24T11:43:40.050Z,11.15
2016-04-24T11:44:40.068Z,11.11
2016-04-24T11:45:40.023Z,11.05
2016-04-24T11:46:40.073Z,10.93
2016-04-24T11:47:40.044Z,10.78
2016-04-24T11:48:40.047Z,10.57
2016-04-24T11:49:40.112Z,10.34
2016-04-24T11:50:40.021Z,9.99
2016-04-24T11:51:40.024Z,9.79
2016-04-24T11:52:40.168Z,9.43
2016-04-24T11:53:40.076Z,9.11
2016-04-24T11:54:40.376Z,8.97
2016-04-24T11:55:40.066Z,8.81
2016-04-24T11:56:39.975Z,8.55
2016-04-24T11:57:39.993Z,8.38
2016-04-24T11:58:40.012Z,8.45
2016-04-24T11:59:40.045Z,8.23
2016-04-24T12:00:40.142Z,8.19
2016-04-24T12:01:40.081Z,8.19
2016-04-24T12:02:40.053Z,8.18
2016-04-24T12:03:40.025Z,8.16
2016-04-24T12:04:40.090Z,8.31
2016-04-24T12:05:40.092Z,8.37
2016-04-24T12:06:40.017Z,8.51
2016-04-24T12:07:40.005Z,8.58
2016-04-24T12:08:40.194Z,8.71
2016-04-24T12:09:40.432Z,8.73
2016-04-24T12:10:40.435Z,8.79
2016-04-24T12:11:40.124Z,8.88
2016-04-24T12:12:40.080Z,8.81
2016-04-24T12:13:39.974Z,8.71
2016-04-24T12:14:40.085Z,8.69
2016-04-24T12:15:40.135Z,8.74
2016-04-24T12:16:40.029Z,8.92
2016-04-24T12:17:39.969Z,9.02
2016-04-24T12:18:40.065Z,9.16
2016-04-24T12:19:40.099Z,9.16
2016-04-24T12:20:40.070Z,9.37
2016-04-24T12:21:40.010Z,9.31
2016-04-24T12:22:39.967Z,9.31
2016-04-24T12:23:39.984Z,9.31
2016-04-24T12:24:39.926Z,9.29
2016-04-24T12:25:40.115Z,9.28
2016-04-24T12:26:40.071Z,9.39
2016-04-24T12:27:40.012Z,9.32
2016-04-24T12:28:39.983Z,9.32
2016-04-24T12:29:40.064Z,9.48
2016-04-24T12:30:40.004Z,9.56
2016-04-24T12:31:40.037Z,9.51
2016-04-24T12:32:39.994Z,9.58
2016-04-24T12:33:40.028Z,9.44
2016-04-24T12:34:39.999Z,9.48
2016-04-24T12:35:40.048Z,9.31
2016-04-24T12:36:40.020Z,9.19
2016-04-24T12:37:40.007Z,9.06
2016-04-24T12:38:39.931Z,8.71
2016-04-24T12:39:40.044Z,8.56
2016-04-24T12:40:40.124Z,8.55
2016-04-24T12:41:40.002Z,8.69
2016-04-24T12:42:39.989Z,8.69
2016-04-24T12:43:39.913Z,8.6
2016-04-24T12:44:40.026Z,8.61
2016-04-24T12:45:40.122Z,8.51
2016-04-24T12:46:39.969Z,8.44
2016-04-24T12:47:40.066Z,8.3
2016-04-24T12:48:40.021Z,8.15
2016-04-24T12:49:40.007Z,8.12
2016-04-24T12:50:40.027Z,8.2
2016-04-24T12:51:40.045Z,8.08
2016-04-24T12:52:40.016Z,8.03
2016-04-24T12:53:39.966Z,7.98
2016-04-24T12:54:40.155Z,7.88
2016-04-24T12:55:40.033Z,7.73
2016-04-24T12:56:40.019Z,7.76
2016-04-24T12:57:39.930Z,7.73
2016-04-24T12:58:40.057Z,7.79
2016-04-24T12:59:39.966Z,7.83
2016-04-24T13:00:40.015Z,7.91
2016-04-24T13:01:39.924Z,7.95
2016-04-24T13:02:39.943Z,7.95
2016-04-24T13:03:40.039Z,8
2016-04-24T13:04:39.916Z,8.05
2016-04-24T13:05:40.154Z,7.98
2016-04-24T13:06:40.015Z,7.97
2016-04-24T13:07:40.018Z,8.03
2016-04-24T13:08:40.006Z,8.13
2016-04-24T13:09:40.961Z,8.31
2016-04-24T13:10:40.996Z,8.46
2016-04-24T13:11:41.170Z,8.71
2016-04-24T13:12:40.110Z,8.69
2016-04-24T13:13:40.519Z,8.94
2016-04-24T13:14:40.084Z,9.1
2016-04-24T13:15:40.024Z,9.11